Time;durP1;ratioP1;P1;durP2;ratioP2;P2;SDS_P1;SDS_P2;PMS_P1;PMS_P2;Temp;Humidity;BMP_temperature;BMP_pressure;BME280_temperature;BME280_humidity;BME280_pressure;Samples;Min_cycle;Max_cycle;Signal;HPM_P1;HPM_P2
2022/05/13 00:01:09;;;;;;;3.10;2.63;;;;;;;;;;10350511;28;20103;-57
2022/05/13 00:06:08;;;;;;;3.65;2.05;;;;;;;;;;10354343;28;20556;-57
2022/05/13 00:11:07;;;;;;;3.88;1.98;;;;;;;;;;10357285;28;20080;-55
2022/05/13 00:16:06;;;;;;;3.58;2.22;;;;;;;;;;10362368;28;20075;-58
2022/05/13 00:21:05;;;;;;;4.15;2.25;;;;;;;;;;10362233;28;20452;-56
2022/05/13 00:26:04;;;;;;;2.63;2.38;;;;;;;;;;10360509;28;20063;-56
2022/05/13 00:31:04;;;;;;;2.80;2.45;;;;;;;;;;10361801;28;20052;-55
2022/05/13 00:36:04;;;;;;;3.78;2.58;;;;;;;;;;10360503;28;20481;-58
2022/05/13 00:41:03;;;;;;;7.13;2.40;;;;;;;;;;10361075;28;20109;-56
2022/05/13 00:46:03;;;;;;;3.83;2.58;;;;;;;;;;10361292;28;20130;-59
2022/05/13 00:51:06;;;;;;;3.58;2.40;;;;;;;;;;10361144;28;20063;-56
2022/05/13 00:56:06;;;;;;;5.60;2.25;;;;;;;;;;10360613;28;20079;-58
2022/05/13 01:01:05;;;;;;;2.97;2.55;;;;;;;;;;10360629;28;20036;-57
2022/05/13 01:06:05;;;;;;;3.22;2.30;;;;;;;;;;10359683;28;20068;-57
2022/05/13 01:11:08;;;;;;;3.42;2.63;;;;;;;;;;10359617;28;20433;-56
2022/05/13 01:16:11;;;;;;;3.80;2.65;;;;;;;;;;10360980;28;20083;-57
2022/05/13 01:21:11;;;;;;;3.50;2.17;;;;;;;;;;10354392;28;20076;-57
2022/05/13 01:26:13;;;;;;;3.20;2.70;;;;;;;;;;10359412;28;20067;-56
2022/05/13 01:31:13;;;;;;;11.32;2.83;;;;;;;;;;10359198;28;20067;-56
2022/05/13 01:36:12;;;;;;;3.78;2.10;;;;;;;;;;10358505;28;20513;-57
2022/05/13 01:41:13;;;;;;;3.17;2.58;;;;;;;;;;10358860;28;20865;-57
2022/05/13 01:46:11;;;;;;;4.03;2.42;;;;;;;;;;10358855;28;20088;-54
2022/05/13 01:51:10;;;;;;;3.72;2.55;;;;;;;;;;10358544;28;20428;-58
2022/05/13 01:56:08;;;;;;;2.92;2.63;;;;;;;;;;10358809;28;20075;-56
2022/05/13 02:01:08;;;;;;;4.55;2.95;;;;;;;;;;10358882;28;20087;-57
2022/05/13 02:06:07;;;;;;;2.45;2.20;;;;;;;;;;10358906;28;20075;-56
2022/05/13 02:11:05;;;;;;;4.00;2.50;;;;;;;;;;10359024;28;20412;-57
2022/05/13 02:16:04;;;;;;;5.25;3.28;;;;;;;;;;10357903;28;20082;-56
2022/05/13 02:21:04;;;;;;;4.35;2.70;;;;;;;;;;10357265;28;20079;-55
2022/05/13 02:26:03;;;;;;;4.25;3.05;;;;;;;;;;10356978;28;20375;-57
2022/05/13 02:31:02;;;;;;;4.85;2.88;;;;;;;;;;10356472;28;20517;-59
2022/05/13 02:36:00;;;;;;;7.97;2.70;;;;;;;;;;10356407;28;20068;-55
2022/05/13 02:41:12;;;;;;;5.00;2.80;;;;;;;;;;10357247;28;20078;-58
2022/05/13 02:46:11;;;;;;;3.58;2.70;;;;;;;;;;10357839;28;20075;-57
2022/05/13 02:51:10;;;;;;;3.40;2.67;;;;;;;;;;10356370;28;20072;-57
2022/05/13 02:56:09;;;;;;;3.65;3.05;;;;;;;;;;10355507;28;20106;-60
2022/05/13 03:01:08;;;;;;;4.07;2.58;;;;;;;;;;10355875;28;20084;-57
2022/05/13 03:06:07;;;;;;;5.35;2.70;;;;;;;;;;10355468;28;20068;-57
2022/05/13 03:11:07;;;;;;;4.03;3.00;;;;;;;;;;10355803;28;20087;-58
2022/05/13 03:16:07;;;;;;;5.22;3.03;;;;;;;;;;10356247;28;20051;-58
2022/05/13 03:21:06;;;;;;;3.05;2.38;;;;;;;;;;10354857;28;20079;-58
2022/05/13 03:26:04;;;;;;;4.28;3.22;;;;;;;;;;10355272;28;20439;-57
2022/05/13 03:31:03;;;;;;;3.50;3.20;;;;;;;;;;10355114;28;20055;-58
2022/05/13 03:36:02;;;;;;;3.10;2.72;;;;;;;;;;10354477;28;20102;-57
2022/05/13 03:41:01;;;;;;;4.10;3.03;;;;;;;;;;10354878;28;20463;-57
2022/05/13 03:45:59;;;;;;;3.78;2.85;;;;;;;;;;10357677;28;20079;-57
2022/05/13 03:50:57;;;;;;;3.97;2.33;;;;;;;;;;10363131;28;20063;-58
2022/05/13 03:55:57;;;;;;;17.00;11.88;;;;;;;;;;10362404;28;20068;-57
2022/05/13 04:00:55;;;;;;;22.92;17.95;;;;;;;;;;10362656;28;20512;-57
2022/05/13 04:11:07;;;;;;;5.05;3.78;;;;;;;;;;10318210;28;20121;-57
2022/05/13 04:16:05;;;;;;;25.33;19.67;;;;;;;;;;10363190;28;20071;-57
2022/05/13 04:21:05;;;;;;;10.73;9.13;;;;;;;;;;10363379;28;20075;-58
2022/05/13 04:26:03;;;;;;;21.20;18.45;;;;;;;;;;10361838;28;20044;-59
2022/05/13 04:31:03;;;;;;;6.75;5.60;;;;;;;;;;10359933;28;20094;-58
2022/05/13 04:36:06;;;;;;;8.32;7.22;;;;;;;;;;10360755;28;20075;-54
2022/05/13 04:46:18;;;;;;;5.22;4.63;;;;;;;;;;10354428;28;20500;-57
2022/05/13 04:51:18;;;;;;;8.15;5.63;;;;;;;;;;10358005;28;20071;-58
2022/05/13 04:56:17;;;;;;;6.38;3.40;;;;;;;;;;10357619;28;20452;-57
2022/05/13 05:01:16;;;;;;;7.70;4.35;;;;;;;;;;10358595;28;20070;-56
2022/05/13 05:06:17;;;;;;;7.25;6.43;;;;;;;;;;10355008;28;20515;-57
2022/05/13 05:11:15;;;;;;;5.30;4.80;;;;;;;;;;10353837;28;20080;-57
2022/05/13 05:16:15;;;;;;;10.05;7.85;;;;;;;;;;10358297;28;20436;-58
2022/05/13 05:21:13;;;;;;;5.90;5.10;;;;;;;;;;10358329;28;20072;-58
2022/05/13 05:26:14;;;;;;;6.65;3.70;;;;;;;;;;10357445;28;20076;-58
2022/05/13 05:31:13;;;;;;;4.47;3.72;;;;;;;;;;10357800;28;20071;-57
2022/05/13 05:36:11;;;;;;;9.02;4.00;;;;;;;;;;10357133;28;20071;-58
2022/05/13 05:41:09;;;;;;;5.05;4.32;;;;;;;;;;10357203;28;20071;-57
2022/05/13 05:46:09;;;;;;;4.78;3.53;;;;;;;;;;10355024;28;20074;-58
2022/05/13 05:51:07;;;;;;;14.38;4.40;;;;;;;;;;10355185;28;20067;-58
2022/05/13 06:01:23;;;;;;;26.23;5.90;;;;;;;;;;10358234;28;20078;-58
2022/05/13 06:06:22;;;;;;;9.73;5.38;;;;;;;;;;10354410;28;20051;-58
2022/05/13 06:11:20;;;;;;;11.52;4.72;;;;;;;;;;10357450;28;20488;-59
2022/05/13 06:16:18;;;;;;;17.85;6.75;;;;;;;;;;10352016;28;20080;-58
2022/05/13 06:21:18;;;;;;;11.65;3.95;;;;;;;;;;10348977;28;20079;-59
2022/05/13 06:26:16;;;;;;;10.80;4.50;;;;;;;;;;10348149;28;20064;-59
2022/05/13 06:31:16;;;;;;;11.88;5.05;;;;;;;;;;10355668;28;20072;-59
2022/05/13 06:36:14;;;;;;;8.82;4.53;;;;;;;;;;10356462;28;20078;-59
2022/05/13 06:41:14;;;;;;;8.70;4.25;;;;;;;;;;10356801;28;20068;-59
2022/05/13 06:46:12;;;;;;;8.07;4.10;;;;;;;;;;10353445;28;20079;-57
2022/05/13 06:51:17;;;;;;;7.75;4.85;;;;;;;;;;10353816;28;20075;-58
2022/05/13 06:56:17;;;;;;;5.85;4.50;;;;;;;;;;10355869;28;20048;-58
2022/05/13 07:01:15;;;;;;;7.82;4.25;;;;;;;;;;10355830;28;20082;-58
2022/05/13 07:06:13;;;;;;;7.78;4.63;;;;;;;;;;10354589;28;20067;-59
2022/05/13 07:11:12;;;;;;;10.25;4.20;;;;;;;;;;10355435;28;20500;-58
2022/05/13 07:16:14;;;;;;;8.63;3.85;;;;;;;;;;10355177;28;20076;-58
2022/05/13 07:21:12;;;;;;;6.25;3.55;;;;;;;;;;10354605;28;20079;-58
2022/05/13 07:26:11;;;;;;;6.85;4.68;;;;;;;;;;10355396;28;20071;-58
2022/05/13 07:31:09;;;;;;;3.50;3.15;;;;;;;;;;10352922;28;20067;-57
2022/05/13 07:36:09;;;;;;;11.00;4.38;;;;;;;;;;10351309;28;20090;-58
2022/05/13 07:41:20;;;;;;;4.88;3.80;;;;;;;;;;10351139;28;20068;-58
2022/05/13 07:46:19;;;;;;;5.18;3.45;;;;;;;;;;10350200;28;20115;-58
2022/05/13 07:51:19;;;;;;;7.45;3.65;;;;;;;;;;10352372;28;20068;-58
2022/05/13 07:56:17;;;;;;;5.28;3.50;;;;;;;;;;10347940;28;20083;-57
2022/05/13 08:01:15;;;;;;;6.70;3.55;;;;;;;;;;10351829;28;20079;-58
2022/05/13 08:06:14;;;;;;;7.88;3.75;;;;;;;;;;10352630;28;20548;-58
2022/05/13 08:11:14;;;;;;;5.22;3.50;;;;;;;;;;10354751;28;20048;-58
2022/05/13 08:16:14;;;;;;;7.15;4.10;;;;;;;;;;10354430;28;20464;-57
2022/05/13 08:21:12;;;;;;;6.28;3.17;;;;;;;;;;10348541;28;20076;-58
2022/05/13 08:26:11;;;;;;;7.50;3.50;;;;;;;;;;10351719;28;20051;-58
2022/05/13 08:31:11;;;;;;;4.13;3.72;;;;;;;;;;10355109;28;20662;-57
2022/05/13 08:36:09;;;;;;;8.45;3.40;;;;;;;;;;10361457;28;20067;-57
2022/05/13 08:41:19;;;;;;;8.60;3.83;;;;;;;;;;10361583;28;20072;-58
2022/05/13 08:46:26;;;;;;;6.53;3.65;;;;;;;;;;10361311;28;20047;-58
2022/05/13 08:51:30;;;;;;;5.63;3.10;;;;;;;;;;10359926;28;20064;-57
2022/05/13 08:56:30;;;;;;;11.23;3.38;;;;;;;;;;10360993;28;20083;-58
2022/05/13 09:01:31;;;;;;;7.25;2.95;;;;;;;;;;10358891;28;20075;-58
2022/05/13 09:06:36;;;;;;;5.10;3.13;;;;;;;;;;10360287;28;20055;-58
2022/05/13 09:11:37;;;;;;;3.47;3.17;;;;;;;;;;10360157;28;20060;-58
2022/05/13 09:16:45;;;;;;;5.80;3.22;;;;;;;;;;10360322;28;20490;-58
2022/05/13 09:21:44;;;;;;;7.88;2.78;;;;;;;;;;10354464;28;20072;-58
2022/05/13 09:26:43;;;;;;;7.18;3.17;;;;;;;;;;10359377;28;20079;-59
2022/05/13 09:31:44;;;;;;;5.20;3.25;;;;;;;;;;10359824;28;20043;-58
2022/05/13 09:36:42;;;;;;;5.30;3.28;;;;;;;;;;10359370;28;20441;-58
2022/05/13 09:41:40;;;;;;;6.15;2.90;;;;;;;;;;10359087;28;20086;-58
2022/05/13 09:46:47;;;;;;;4.90;3.07;;;;;;;;;;10358339;28;20461;-58
2022/05/13 09:51:53;;;;;;;6.88;2.65;;;;;;;;;;10358214;28;20055;-58
2022/05/13 09:56:54;;;;;;;6.47;2.60;;;;;;;;;;10358364;28;20068;-58
2022/05/13 10:01:54;;;;;;;5.95;2.58;;;;;;;;;;10358487;28;20083;-58
2022/05/13 10:07:03;;;;;;;6.28;2.58;;;;;;;;;;10359309;28;20040;-59
2022/05/13 10:17:23;;;;;;;6.78;2.47;;;;;;;;;;10352925;28;20056;-57
2022/05/13 10:22:24;;;;;;;3.83;2.20;;;;;;;;;;10358335;28;20079;-58
2022/05/13 10:27:26;;;;;;;5.82;3.40;;;;;;;;;;10357671;28;20471;-58
2022/05/13 10:32:28;;;;;;;3.72;2.42;;;;;;;;;;10357548;28;20051;-58
2022/05/13 10:37:28;;;;;;;5.72;2.30;;;;;;;;;;10350359;28;20071;-59
2022/05/13 10:42:27;;;;;;;3.25;2.20;;;;;;;;;;10347369;28;20082;-58
2022/05/13 10:47:29;;;;;;;11.48;2.83;;;;;;;;;;10350559;28;20071;-58
2022/05/13 10:52:38;;;;;;;4.22;2.33;;;;;;;;;;10356304;28;20109;-58
2022/05/13 10:57:42;;;;;;;5.25;2.50;;;;;;;;;;10351266;28;20561;-58
2022/05/13 11:02:40;;;;;;;;;;;;;;;;;;10356985;28;20075;-58
2022/05/13 11:07:43;;;;;;;4.57;2.22;;;;;;;;;;10356532;28;19963;-58
2022/05/13 11:12:43;;;;;;;4.27;2.73;;;;;;;;;;10356528;28;20517;-58
2022/05/13 11:17:45;;;;;;;5.53;3.17;;;;;;;;;;10356174;28;20044;-58
2022/05/13 11:22:47;;;;;;;5.50;2.45;;;;;;;;;;10355938;28;20524;-58
2022/05/13 11:27:51;;;;;;;5.28;3.10;;;;;;;;;;10355870;28;20421;-58
2022/05/13 11:32:51;;;;;;;9.02;3.65;;;;;;;;;;10355676;28;20055;-58
2022/05/13 11:37:53;;;;;;;3.58;2.33;;;;;;;;;;10355473;28;20075;-58
2022/05/13 11:48:19;;;;;;;7.22;2.78;;;;;;;;;;10355122;28;20474;-58
2022/05/13 11:53:32;;;;;;;4.80;3.65;;;;;;;;;;10355465;28;20071;-58
2022/05/13 11:58:48;;;;;;;3.90;2.60;;;;;;;;;;10334587;28;20476;-58
2022/05/13 12:04:06;;;;;;;6.25;3.00;;;;;;;;;;10355122;28;20098;-59
2022/05/13 12:09:09;;;;;;;9.52;2.40;;;;;;;;;;10360783;28;20086;-58
2022/05/13 12:14:13;;;;;;;4.50;3.10;;;;;;;;;;10364526;28;20044;-58
2022/05/13 12:19:26;;;;;;;4.40;3.08;;;;;;;;;;10363541;28;20040;-58
2022/05/13 12:24:25;;;;;;;7.35;2.97;;;;;;;;;;10361074;28;20481;-59
2022/05/13 12:29:39;;;;;;;7.18;3.22;;;;;;;;;;10361009;28;20075;-59
2022/05/13 12:39:56;;;;;;;7.53;2.92;;;;;;;;;;10362212;28;20063;-59
2022/05/13 12:45:01;;;;;;;8.43;3.78;;;;;;;;;;10362272;28;20087;-58
2022/05/13 12:50:00;;;;;;;4.65;2.78;;;;;;;;;;10360692;28;20075;-59
2022/05/13 12:55:01;;;;;;;6.03;2.88;;;;;;;;;;10360328;28;20441;-58
2022/05/13 13:00:01;;;;;;;2.88;2.40;;;;;;;;;;10360511;28;20106;-59
2022/05/13 13:05:04;;;;;;;6.45;3.05;;;;;;;;;;10360650;28;20083;-58
2022/05/13 13:10:04;;;;;;;3.40;2.92;;;;;;;;;;10360275;28;20060;-59
2022/05/13 13:15:05;;;;;;;3.03;2.72;;;;;;;;;;10359973;28;20525;-58
2022/05/13 13:20:05;;;;;;;4.82;2.80;;;;;;;;;;10359574;28;20047;-58
2022/05/13 13:25:07;;;;;;;7.85;3.60;;;;;;;;;;10361907;28;20067;-58
2022/05/13 13:30:14;;;;;;;3.33;2.47;;;;;;;;;;10360960;28;20048;-59
2022/05/13 13:35:12;;;;;;;6.40;2.60;;;;;;;;;;10353396;28;20072;-59
2022/05/13 13:40:14;;;;;;;4.90;3.10;;;;;;;;;;10356714;28;20075;-56
2022/05/13 13:45:15;;;;;;;6.15;2.55;;;;;;;;;;10360157;28;20492;-59
2022/05/13 13:50:15;;;;;;;12.38;3.30;;;;;;;;;;10355502;28;20079;-59
2022/05/13 13:55:19;;;;;;;5.20;2.85;;;;;;;;;;10354761;28;20075;-58
2022/05/13 14:00:17;;;;;;;;;;;;;;;;;;10354850;28;20074;-58
2022/05/13 14:05:18;;;;;;;5.22;4.43;;;;;;;;;;10359518;28;19974;-58
2022/05/13 14:10:18;;;;;;;3.55;2.90;;;;;;;;;;10359178;28;20110;-58
2022/05/13 14:15:18;;;;;;;6.70;3.53;;;;;;;;;;10357743;28;20140;-58
2022/05/13 14:20:18;;;;;;;3.33;2.70;;;;;;;;;;10358780;28;20040;-59
2022/05/13 14:25:17;;;;;;;8.02;3.33;;;;;;;;;;10357898;28;20071;-59
2022/05/13 14:30:15;;;;;;;5.28;2.97;;;;;;;;;;10353593;28;20047;-58
2022/05/13 14:35:15;;;;;;;7.13;2.97;;;;;;;;;;10352584;28;20078;-59
2022/05/13 14:40:20;;;;;;;7.40;3.40;;;;;;;;;;10353256;28;20091;-59
2022/05/13 14:45:21;;;;;;;8.35;3.22;;;;;;;;;;10352571;28;20082;-58
2022/05/13 14:50:23;;;;;;;7.72;3.80;;;;;;;;;;10356341;28;20079;-58
2022/05/13 14:55:28;;;;;;;6.05;3.65;;;;;;;;;;10356233;28;20078;-58
2022/05/13 15:00:29;;;;;;;5.90;3.65;;;;;;;;;;10356259;28;20044;-58
2022/05/13 15:05:30;;;;;;;3.55;3.25;;;;;;;;;;10355813;28;20087;-58
2022/05/13 15:10:30;;;;;;;6.43;3.20;;;;;;;;;;10355741;28;20090;-58
2022/05/13 15:15:28;;;;;;;8.90;4.40;;;;;;;;;;10352478;28;20084;-58
2022/05/13 15:20:27;;;;;;;7.90;5.55;;;;;;;;;;10352883;28;20454;-58
2022/05/13 15:25:25;;;;;;;5.63;3.65;;;;;;;;;;10355290;28;20094;-58
2022/05/13 15:30:26;;;;;;;8.45;3.50;;;;;;;;;;10352134;28;20064;-58
2022/05/13 15:35:25;;;;;;;5.85;4.65;;;;;;;;;;10354515;28;20056;-58
2022/05/13 15:40:23;;;;;;;5.25;4.38;;;;;;;;;;10354423;28;20087;-59
2022/05/13 15:45:22;;;;;;;4.82;3.50;;;;;;;;;;10353205;28;20539;-59
2022/05/13 15:55:41;;;;;;;3.67;2.90;;;;;;;;;;10354974;28;20476;-57
2022/05/13 16:00:41;;;;;;;9.93;4.57;;;;;;;;;;10354767;28;20072;-58
2022/05/13 16:05:41;;;;;;;8.07;4.82;;;;;;;;;;10350981;28;20078;-57
2022/05/13 16:10:40;;;;;;;5.25;4.45;;;;;;;;;;10353837;28;20103;-57
2022/05/13 16:15:40;;;;;;;10.20;3.72;;;;;;;;;;10351315;28;20083;-58
2022/05/13 16:20:39;;;;;;;6.13;4.60;;;;;;;;;;10351866;28;20080;-58
2022/05/13 16:25:39;;;;;;;10.48;6.32;;;;;;;;;;10352565;28;20525;-58
2022/05/13 16:30:37;;;;;;;7.35;5.50;;;;;;;;;;10350090;28;20484;-58
2022/05/13 16:35:36;;;;;;;10.45;7.85;;;;;;;;;;10349124;28;20067;-58
2022/05/13 16:40:35;;;;;;;10.07;6.55;;;;;;;;;;10349945;28;20060;-58
2022/05/13 16:45:35;;;;;;;7.05;5.68;;;;;;;;;;10351147;28;20097;-58
2022/05/13 16:50:35;;;;;;;10.75;8.65;;;;;;;;;;10354150;28;20068;-57
2022/05/13 16:55:33;;;;;;;12.48;8.27;;;;;;;;;;10359883;28;20044;-58
2022/05/13 17:00:32;;;;;;;6.43;5.40;;;;;;;;;;10360945;28;20074;-58
2022/05/13 17:05:33;;;;;;;8.85;3.58;;;;;;;;;;10361785;28;20075;-58
2022/05/13 17:21:05;;;;;;;14.45;9.77;;;;;;;;;;10360053;28;20075;-58
2022/05/13 17:26:03;;;;;;;16.30;11.82;;;;;;;;;;10359724;28;20068;-58
2022/05/13 17:31:02;;;;;;;16.90;15.15;;;;;;;;;;10359865;28;20072;-58
2022/05/13 17:36:01;;;;;;;29.63;25.17;;;;;;;;;;10359513;28;20039;-57
2022/05/13 17:41:01;;;;;;;43.22;38.72;;;;;;;;;;10359369;28;20090;-58
2022/05/13 17:45:59;;;;;;;23.15;20.75;;;;;;;;;;10358923;28;20087;-58
2022/05/13 17:50:57;;;;;;;24.45;17.95;;;;;;;;;;10358865;28;20198;-58
2022/05/13 17:55:56;;;;;;;27.38;13.80;;;;;;;;;;10358516;28;20068;-58
2022/05/13 18:00:56;;;;;;;28.02;25.13;;;;;;;;;;10359675;28;20512;-58
2022/05/13 18:05:54;;;;;;;25.73;21.10;;;;;;;;;;10358568;28;20067;-58
2022/05/13 18:10:53;;;;;;;22.63;19.60;;;;;;;;;;10358344;28;20279;-58
2022/05/13 18:15:51;;;;;;;26.15;21.73;;;;;;;;;;10354227;28;20044;-57
2022/05/13 18:20:51;;;;;;;22.77;20.38;;;;;;;;;;10353889;28;20075;-57
2022/05/13 18:25:49;;;;;;;11.45;10.30;;;;;;;;;;10356826;28;20075;-59
2022/05/13 18:30:48;;;;;;;18.55;16.65;;;;;;;;;;10357224;28;20091;-59
2022/05/13 18:35:47;;;;;;;13.75;9.50;;;;;;;;;;10356885;28;20072;-59
2022/05/13 18:46:08;;;;;;;17.25;13.80;;;;;;;;;;10350218;28;20076;-60
2022/05/13 18:51:08;;;;;;;16.73;15.00;;;;;;;;;;10355187;28;20067;-59
2022/05/13 18:56:08;;;;;;;19.02;15.77;;;;;;;;;;10355865;28;20067;-58
2022/05/13 19:01:06;;;;;;;15.07;12.18;;;;;;;;;;10356190;28;20040;-58
2022/05/13 19:06:05;;;;;;;17.95;15.23;;;;;;;;;;10356005;28;20078;-58
2022/05/13 19:11:04;;;;;;;17.90;16.02;;;;;;;;;;10355429;28;20062;-58
2022/05/13 19:16:05;;;;;;;14.18;8.20;;;;;;;;;;10355555;28;20078;-59
2022/05/13 19:21:04;;;;;;;19.25;17.15;;;;;;;;;;10355518;28;20090;-59
2022/05/13 19:26:04;;;;;;;11.85;10.63;;;;;;;;;;10354875;28;20090;-59
2022/05/13 19:31:04;;;;;;;13.88;12.45;;;;;;;;;;10355347;28;20074;-59
2022/05/13 19:36:04;;;;;;;29.60;26.13;;;;;;;;;;10355348;28;20063;-58
2022/05/13 19:41:02;;;;;;;54.00;43.25;;;;;;;;;;10354552;28;20071;-59
2022/05/13 19:46:01;;;;;;;55.28;40.75;;;;;;;;;;10354828;28;20076;-58
2022/05/13 19:50:59;;;;;;;47.47;39.83;;;;;;;;;;10354741;28;20071;-58
2022/05/13 19:55:59;;;;;;;25.30;18.00;;;;;;;;;;10354725;28;20080;-59
2022/05/13 20:00:58;;;;;;;11.60;8.80;;;;;;;;;;10345079;28;20137;-58
2022/05/13 20:11:16;;;;;;;10.05;8.80;;;;;;;;;;10352457;28;20071;-57
2022/05/13 20:16:15;;;;;;;22.10;16.58;;;;;;;;;;10349322;28;20553;-58
2022/05/13 20:26:32;;;;;;;8.40;4.15;;;;;;;;;;10350670;28;20695;-57
2022/05/13 20:31:31;;;;;;;8.55;4.03;;;;;;;;;;10358426;28;20262;-56
2022/05/13 20:36:32;;;;;;;6.00;4.18;;;;;;;;;;10358136;28;20063;-58
2022/05/13 20:41:32;;;;;;;8.32;3.47;;;;;;;;;;10357984;28;20052;-58
2022/05/13 20:46:31;;;;;;;9.93;3.95;;;;;;;;;;10359620;28;20072;-57
2022/05/13 20:51:30;;;;;;;5.72;3.63;;;;;;;;;;10360112;28;20436;-58
2022/05/13 20:56:28;;;;;;;5.22;2.90;;;;;;;;;;10361061;28;20084;-58
2022/05/13 21:01:28;;;;;;;4.85;3.30;;;;;;;;;;10360724;28;20075;-58
2022/05/13 21:06:26;;;;;;;3.70;3.10;;;;;;;;;;10360529;28;20122;-58
2022/05/13 21:11:24;;;;;;;6.93;3.63;;;;;;;;;;10359834;28;20087;-58
2022/05/13 21:16:23;;;;;;;6.20;3.40;;;;;;;;;;10358838;28;20102;-58
2022/05/13 21:21:22;;;;;;;4.93;2.63;;;;;;;;;;10357114;28;20494;-58
2022/05/13 21:26:21;;;;;;;5.05;3.03;;;;;;;;;;10359347;28;20491;-58
2022/05/13 21:36:41;;;;;;;7.00;2.88;;;;;;;;;;10357492;28;20068;-57
2022/05/13 21:36:45;;;;;;;3.65;3.35;;;;;;;;;;10353430;28;20086;-57
2022/05/13 21:41:43;;;;;;;3.80;3.20;;;;;;;;;;10358407;28;20075;-57
2022/05/13 21:46:41;;;;;;;4.90;2.80;;;;;;;;;;10359151;28;20067;-57
2022/05/13 21:56:57;;;;;;;8.25;3.58;;;;;;;;;;10355005;28;20044;-57
2022/05/13 22:01:56;;;;;;;4.22;3.00;;;;;;;;;;10358488;28;20040;-57
2022/05/13 22:06:55;;;;;;;3.90;2.85;;;;;;;;;;10358296;28;20076;-57
2022/05/13 22:11:53;;;;;;;4.38;3.25;;;;;;;;;;10358394;28;20341;-57
2022/05/13 22:16:52;;;;;;;4.80;2.88;;;;;;;;;;10357762;28;20074;-58
2022/05/13 22:21:51;;;;;;;3.28;2.97;;;;;;;;;;10358040;28;20044;-57
2022/05/13 22:26:56;;;;;;;3.67;2.90;;;;;;;;;;10357527;28;20071;-57
2022/05/13 22:31:54;;;;;;;5.93;2.95;;;;;;;;;;10357658;28;20078;-56
2022/05/13 22:36:52;;;;;;;4.30;2.90;;;;;;;;;;10357357;28;20080;-59
2022/05/13 22:41:50;;;;;;;4.35;3.35;;;;;;;;;;10356975;28;20035;-59
2022/05/13 22:46:50;;;;;;;4.25;3.28;;;;;;;;;;10357353;28;20064;-57
2022/05/13 22:51:48;;;;;;;3.85;2.90;;;;;;;;;;10356455;28;20059;-57
2022/05/13 22:56:47;;;;;;;4.45;2.95;;;;;;;;;;10356603;28;20099;-57
2022/05/13 23:01:46;;;;;;;3.75;3.42;;;;;;;;;;10356151;28;20064;-57
2022/05/13 23:12:07;;;;;;;5.43;2.97;;;;;;;;;;10335469;28;20076;-56
2022/05/13 23:17:05;;;;;;;5.57;3.38;;;;;;;;;;10357041;28;20075;-57
2022/05/13 23:22:05;;;;;;;3.28;2.85;;;;;;;;;;10349536;28;20067;-57
2022/05/13 23:27:04;;;;;;;6.10;3.40;;;;;;;;;;10356587;28;20559;-57
2022/05/13 23:32:02;;;;;;;4.18;2.83;;;;;;;;;;10355662;28;20059;-57
2022/05/13 23:37:00;;;;;;;5.47;3.22;;;;;;;;;;10355361;28;20096;-57
2022/05/13 23:42:00;;;;;;;4.65;3.10;;;;;;;;;;10355579;28;20114;-57
2022/05/13 23:46:58;;;;;;;3.80;3.00;;;;;;;;;;10356625;28;20531;-57
2022/05/13 23:51:56;;;;;;;4.22;3.00;;;;;;;;;;10355905;28;20052;-58
2022/05/13 23:56:54;;;;;;;6.60;3.63;;;;;;;;;;10356258;28;20071;-57
